createdAt,value
2019-02-04T00:01:10.707Z,97022.67
2019-02-04T00:03:37.312Z,97020.67
2019-02-04T00:06:04.024Z,97023.32
2019-02-04T00:08:30.639Z,97028.30
2019-02-04T00:10:59.225Z,97028.45
2019-02-04T00:13:25.845Z,97032.75
2019-02-04T00:15:52.465Z,97039.67
2019-02-04T00:18:19.062Z,97035.70
2019-02-04T00:20:45.652Z,97036.05
2019-02-04T00:23:12.264Z,97042.65
2019-02-04T00:25:39.040Z,97048.77
2019-02-04T00:28:05.622Z,97047.59
2019-02-04T00:30:32.315Z,97051.56
2019-02-04T00:32:58.921Z,97059.14
2019-02-04T00:35:25.611Z,97067.07
2019-02-04T00:37:52.234Z,97067.07
2019-02-04T00:40:18.946Z,97070.20
2019-02-04T00:42:45.957Z,97078.97
2019-02-04T00:45:12.664Z,97084.74
2019-02-04T00:47:39.378Z,97086.22
2019-02-04T00:50:06.101Z,97091.50
2019-02-04T00:52:32.811Z,97091.65
2019-02-04T00:54:59.513Z,97096.10
2019-02-04T00:57:26.200Z,97103.84
2019-02-04T00:59:52.792Z,97104.48
2019-02-04T01:02:19.487Z,97118.38
2019-02-04T01:04:46.209Z,97119.70
2019-02-04T01:07:12.943Z,97118.38
2019-02-04T01:09:39.635Z,97123.31
2019-02-04T01:12:06.243Z,97127.43
2019-02-04T01:14:32.929Z,97132.72
2019-02-04T01:17:03.583Z,97136.19
2019-02-04T01:19:28.131Z,97133.70
2019-02-04T01:21:54.937Z,97139.47
2019-02-04T01:24:21.611Z,97142.60
2019-02-04T01:26:48.312Z,97147.88
2019-02-04T01:29:15.019Z,97144.27
2019-02-04T01:31:41.704Z,97139.95
2019-02-04T01:34:08.419Z,97153.81
2019-02-04T01:36:35.394Z,97150.67
2019-02-04T01:39:02.032Z,97154.28
2019-02-04T01:41:28.720Z,97158.25
2019-02-04T01:43:55.424Z,97159.23
2019-02-04T01:46:22.123Z,97163.68
2019-02-04T01:48:48.741Z,97164.52
2019-02-04T01:51:15.340Z,97168.13
2019-02-04T01:53:41.949Z,97169.60
2019-02-04T01:56:08.551Z,97175.38
2019-02-04T01:58:35.282Z,97166.77
2019-02-04T02:01:01.987Z,97174.69
2019-02-04T02:03:28.674Z,97182.62
2019-02-04T02:05:55.389Z,97177.97
2019-02-04T02:08:22.002Z,97187.06
2019-02-04T02:10:48.717Z,97189.86
2019-02-04T02:13:15.605Z,97192.34
2019-02-04T02:15:42.229Z,97195.53
2019-02-04T02:18:08.832Z,97196.89
2019-02-04T02:20:35.452Z,97204.53
2019-02-04T02:23:02.030Z,97202.69
2019-02-04T02:25:28.692Z,97198.56
2019-02-04T02:27:55.380Z,97208.15
2019-02-04T02:30:23.887Z,97217.40
2019-02-04T02:32:50.601Z,97215.39
2019-02-04T02:35:17.321Z,97217.40
2019-02-04T02:37:44.015Z,97214.56
2019-02-04T02:40:15.358Z,97219.64
2019-02-04T02:42:42.056Z,97213.34
2019-02-04T02:45:08.684Z,97218.62
2019-02-04T02:47:38.457Z,97218.28
2019-02-04T02:50:04.208Z,97225.38
2019-02-04T02:52:30.811Z,97221.41
2019-02-04T02:54:57.508Z,97223.41
2019-02-04T02:57:24.212Z,97227.37
2019-02-04T02:59:50.797Z,97225.08
2019-02-04T03:02:17.481Z,97229.88
2019-02-04T03:04:44.580Z,97224.59
2019-02-04T03:07:11.278Z,97224.78
2019-02-04T03:09:37.992Z,97221.66
2019-02-04T03:12:04.589Z,97231.58
2019-02-04T03:14:31.298Z,97233.91
2019-02-04T03:16:57.906Z,97232.78
2019-02-04T03:19:24.642Z,97233.75
2019-02-04T03:21:51.348Z,97231.26
2019-02-04T03:24:18.029Z,97234.08
2019-02-04T03:26:44.642Z,97244.47
2019-02-04T03:29:11.340Z,97248.48
2019-02-04T03:31:39.997Z,97248.53
2019-02-04T03:34:06.450Z,97248.04
2019-02-04T03:36:33.150Z,97242.46
2019-02-04T03:38:59.877Z,97254.70
2019-02-04T03:41:26.777Z,97251.91
2019-02-04T03:43:53.497Z,97253.91
2019-02-04T03:46:20.091Z,97252.39
2019-02-04T03:48:46.708Z,97257.83
2019-02-04T03:51:13.311Z,97256.84
2019-02-04T03:53:40.040Z,97261.16
2019-02-04T03:56:06.832Z,97262.19
2019-02-04T03:58:33.753Z,97263.67
2019-02-04T04:01:00.475Z,97261.37
2019-02-04T04:03:27.193Z,97264.70
2019-02-04T04:05:53.894Z,97264.70
2019-02-04T04:08:20.593Z,97256.08
2019-02-04T04:10:47.378Z,97260.53
2019-02-04T04:13:14.101Z,97262.84
2019-02-04T04:15:41.305Z,97259.06
2019-02-04T04:18:15.378Z,97267.83
2019-02-04T04:20:36.424Z,97267.34
2019-02-04T04:23:03.131Z,97259.90
2019-02-04T04:25:31.701Z,97265.87
2019-02-04T04:27:58.389Z,97265.87
2019-02-04T04:30:25.351Z,97268.81
2019-02-04T04:32:52.340Z,97267.98
2019-02-04T04:35:18.973Z,97274.59
2019-02-04T04:37:45.669Z,97275.05
2019-02-04T04:40:12.780Z,97272.16
2019-02-04T04:42:39.383Z,97272.80
2019-02-04T04:45:06.317Z,97281.02
2019-02-04T04:47:33.037Z,97285.28
2019-02-04T04:49:59.718Z,97289.38
2019-02-04T04:52:26.313Z,97290.08
2019-02-04T04:54:52.916Z,97287.28
2019-02-04T04:57:19.624Z,97294.72
2019-02-04T04:59:46.336Z,97287.83
2019-02-04T05:02:13.040Z,97294.48
2019-02-04T05:04:39.643Z,97285.92
2019-02-04T05:07:06.386Z,97284.11
2019-02-04T05:09:33.480Z,97290.08
2019-02-04T05:12:00.199Z,97297.34
2019-02-04T05:14:26.908Z,97300.80
2019-02-04T05:16:53.530Z,97305.89
2019-02-04T05:19:20.242Z,97311.03
2019-02-04T05:21:46.934Z,97306.23
2019-02-04T05:24:13.771Z,97310.54
2019-02-04T05:26:40.777Z,97310.05
2019-02-04T05:29:07.491Z,97317.09
2019-02-04T05:31:34.207Z,97313.47
2019-02-04T05:34:00.904Z,97318.61
2019-02-04T05:36:27.616Z,97318.95
2019-02-04T05:38:54.347Z,97323.75
2019-02-04T05:41:21.058Z,97328.55
2019-02-04T05:43:47.765Z,97325.56
2019-02-04T05:46:14.563Z,97329.53
2019-02-04T05:48:49.095Z,97331.34
2019-02-04T05:51:09.667Z,97336.13
2019-02-04T05:53:36.283Z,97338.44
2019-02-04T05:56:03.019Z,97337.11
2019-02-04T05:58:29.741Z,97345.38
2019-02-04T06:00:56.469Z,97352.82
2019-02-04T06:03:23.414Z,97354.14
2019-02-04T06:05:50.105Z,97356.16
2019-02-04T06:08:16.854Z,97359.45
2019-02-04T06:10:43.538Z,97358.80
2019-02-04T06:13:10.143Z,97362.27
2019-02-04T06:15:36.759Z,97364.73
2019-02-04T06:18:03.518Z,97361.61
2019-02-04T06:20:30.250Z,97368.90
2019-02-04T06:22:57.235Z,97368.05
2019-02-04T06:25:24.046Z,97374.73
2019-02-04T06:27:50.765Z,97374.88
2019-02-04T06:30:17.385Z,97377.53
2019-02-04T06:32:44.088Z,97381.20
2019-02-04T06:35:10.885Z,97380.57
2019-02-04T06:37:37.504Z,97392.66
2019-02-04T06:40:04.424Z,97390.88
2019-02-04T06:42:31.033Z,97402.70
2019-02-04T06:44:58.010Z,97397.23
2019-02-04T06:47:25.042Z,97394.13
2019-02-04T06:49:52.074Z,97393.44
2019-02-04T06:52:19.110Z,97400.70
2019-02-04T06:54:46.148Z,97408.95
2019-02-04T06:57:13.488Z,97410.69
2019-02-04T06:59:40.540Z,97419.09
2019-02-04T07:02:07.595Z,97418.73
2019-02-04T07:04:34.638Z,97424.34
2019-02-04T07:07:01.687Z,97433.10
2019-02-04T07:09:28.747Z,97438.44
2019-02-04T07:11:55.827Z,97436.75
2019-02-04T07:14:22.877Z,97448.75
2019-02-04T07:16:49.913Z,97451.05
2019-02-04T07:19:24.262Z,97455.31
2019-02-04T07:21:45.942Z,97456.63
2019-02-04T07:24:13.012Z,97455.59
2019-02-04T07:26:40.098Z,97461.28
2019-02-04T07:29:07.137Z,97462.31
2019-02-04T07:31:34.200Z,97452.32
2019-02-04T07:34:01.638Z,97465.80
2019-02-04T07:36:28.699Z,97471.02
2019-02-04T07:38:55.751Z,97464.92
2019-02-04T07:41:22.821Z,97454.83
2019-02-04T07:43:49.879Z,97458.29
2019-02-04T07:46:16.909Z,97452.52
2019-02-04T07:48:43.947Z,97451.07
2019-02-04T07:51:11.101Z,97454.44
2019-02-04T07:53:38.181Z,97457.63
2019-02-04T07:56:05.250Z,97451.75
2019-02-04T07:58:32.295Z,97453.08
2019-02-04T08:00:59.383Z,97459.67
2019-02-04T08:03:26.463Z,97460.29
2019-02-04T08:05:53.527Z,97470.66
2019-02-04T08:08:20.585Z,97466.77
2019-02-04T08:10:47.631Z,97463.86
2019-02-04T08:13:14.683Z,97464.77
2019-02-04T08:15:41.741Z,97460.38
2019-02-04T08:18:08.803Z,97469.90
2019-02-04T08:20:35.847Z,97471.03
2019-02-04T08:23:02.884Z,97467.39
2019-02-04T08:25:29.947Z,97468.53
2019-02-04T08:27:57.202Z,97463.73
2019-02-04T08:30:26.474Z,97468.05
2019-02-04T08:32:53.633Z,97468.04
2019-02-04T08:35:20.697Z,97466.15
2019-02-04T08:37:47.747Z,97470.09
2019-02-04T08:40:14.833Z,97478.17
2019-02-04T08:42:42.019Z,97479.27
2019-02-04T08:45:10.118Z,97477.80
2019-02-04T08:47:37.179Z,97476.17
2019-02-04T08:50:05.279Z,97479.36
2019-02-04T08:52:32.341Z,97480.98
2019-02-04T08:54:59.468Z,97475.53
2019-02-04T08:57:26.583Z,97472.73
2019-02-04T08:59:53.740Z,97466.98
2019-02-04T09:02:20.781Z,97475.80
2019-02-04T09:04:48.151Z,97478.15
2019-02-04T09:07:15.206Z,97479.47
2019-02-04T09:09:42.386Z,97471.03
2019-02-04T09:12:10.045Z,97475.50
2019-02-04T09:14:37.114Z,97473.19
2019-02-04T09:17:04.182Z,97475.08
2019-02-04T09:19:31.238Z,97470.98
2019-02-04T09:21:58.286Z,97481.77
2019-02-04T09:24:25.582Z,97471.59
2019-02-04T09:26:52.628Z,97473.91
2019-02-04T09:29:19.686Z,97468.80
2019-02-04T09:31:46.732Z,97463.19
2019-02-04T09:34:13.777Z,97463.03
2019-02-04T09:36:40.846Z,97466.05
2019-02-04T09:39:08.690Z,97465.13
2019-02-04T09:41:36.044Z,97464.69
2019-02-04T09:44:03.085Z,97465.05
2019-02-04T09:46:30.148Z,97459.44
2019-02-04T09:48:57.201Z,97460.42
2019-02-04T09:51:24.273Z,97469.22
2019-02-04T09:53:51.503Z,97459.54
2019-02-04T09:56:18.577Z,97458.00
2019-02-04T09:58:45.729Z,97456.68
2019-02-04T10:01:12.896Z,97456.00
2019-02-04T10:03:39.990Z,97457.33
2019-02-04T10:06:07.043Z,97457.98
2019-02-04T10:08:34.103Z,97452.98
2019-02-04T10:11:01.149Z,97449.69
2019-02-04T10:13:28.338Z,97450.52
2019-02-04T10:15:58.585Z,97447.68
2019-02-04T10:18:25.642Z,97445.70
2019-02-04T10:20:52.803Z,97447.37
2019-02-04T10:23:20.066Z,97445.37
2019-02-04T10:25:47.169Z,97444.20
2019-02-04T10:28:14.443Z,97449.69
2019-02-04T10:30:41.964Z,97446.05
2019-02-04T10:33:09.047Z,97443.73
2019-02-04T10:35:36.077Z,97442.09
2019-02-04T10:38:03.233Z,97437.67
2019-02-04T10:40:30.338Z,97435.88
2019-02-04T10:42:57.457Z,97429.31
2019-02-04T10:45:25.498Z,97421.05
2019-02-04T10:47:52.700Z,97427.05
2019-02-04T10:50:21.840Z,97425.24
2019-02-04T10:52:49.627Z,97421.10
2019-02-04T10:55:17.359Z,97417.78
2019-02-04T10:57:44.580Z,97417.60
2019-02-04T11:00:14.094Z,97413.44
2019-02-04T11:02:41.156Z,97416.92
2019-02-04T11:05:10.652Z,97414.11
2019-02-04T11:07:38.099Z,97412.29
2019-02-04T11:10:06.669Z,97401.14
2019-02-04T11:12:33.703Z,97400.82
2019-02-04T11:15:00.793Z,97393.34
2019-02-04T11:17:27.908Z,97392.48
2019-02-04T11:19:54.908Z,97378.86
2019-02-04T11:22:21.966Z,97382.02
2019-02-04T11:24:49.448Z,97372.88
2019-02-04T11:27:35.019Z,97373.87
2019-02-04T11:30:31.784Z,97364.92
2019-02-04T11:33:17.597Z,97366.25
2019-02-04T11:35:47.396Z,97361.27
2019-02-04T11:38:14.396Z,97366.41
2019-02-04T11:40:41.444Z,97371.34
2019-02-04T11:43:09.465Z,97368.86
2019-02-04T11:45:36.754Z,97363.55
2019-02-04T11:48:06.344Z,97362.38
2019-02-04T11:50:33.442Z,97357.23
2019-02-04T11:53:00.560Z,97355.08
2019-02-04T11:55:27.576Z,97352.61
2019-02-04T11:57:54.648Z,97355.57
2019-02-04T12:00:23.459Z,97352.77
2019-02-04T12:02:51.549Z,97354.60
2019-02-04T12:05:19.162Z,97353.28
2019-02-04T12:07:46.400Z,97347.98
2019-02-04T12:10:34.676Z,97345.32
2019-02-04T12:13:01.980Z,97345.66
2019-02-04T12:15:29.092Z,97340.20
2019-02-04T12:17:56.137Z,97339.39
2019-02-04T12:20:23.188Z,97330.44
2019-02-04T12:22:50.280Z,97328.63
2019-02-04T12:25:19.364Z,97326.80
2019-02-04T12:27:46.471Z,97328.95
2019-02-04T12:30:17.648Z,97326.63
2019-02-04T12:32:44.683Z,97325.45
2019-02-04T12:35:11.736Z,97329.62
2019-02-04T12:37:38.833Z,97323.81
2019-02-04T12:40:06.402Z,97327.45
2019-02-04T12:42:33.464Z,97324.98
2019-02-04T12:45:00.523Z,97320.48
2019-02-04T12:47:27.917Z,97318.48
2019-02-04T12:49:54.954Z,97315.97
2019-02-04T12:52:22.034Z,97314.17
2019-02-04T12:54:49.072Z,97306.03
2019-02-04T12:57:16.121Z,97299.23
2019-02-04T12:59:45.243Z,97297.92
2019-02-04T13:02:12.092Z,97293.63
2019-02-04T13:04:39.358Z,97297.46
2019-02-04T13:07:06.415Z,97295.34
2019-02-04T13:09:33.476Z,97291.34
2019-02-04T13:12:00.557Z,97290.20
2019-02-04T13:14:27.631Z,97291.35
2019-02-04T13:16:54.668Z,97290.84
2019-02-04T13:19:21.756Z,97290.67
2019-02-04T13:21:49.140Z,97286.52
2019-02-04T13:24:16.178Z,97290.98
2019-02-04T13:26:43.241Z,97283.37
2019-02-04T13:29:10.305Z,97281.88
2019-02-04T13:31:37.362Z,97289.02
2019-02-04T13:34:04.620Z,97284.39
2019-02-04T13:36:31.697Z,97282.72
2019-02-04T13:38:58.988Z,97276.41
2019-02-04T13:41:26.126Z,97276.25
2019-02-04T13:43:53.232Z,97267.64
2019-02-04T13:46:20.329Z,97266.48
2019-02-04T13:48:47.371Z,97273.61
2019-02-04T13:51:14.413Z,97273.78
2019-02-04T13:53:41.438Z,97274.27
2019-02-04T13:56:08.490Z,97280.09
2019-02-04T13:58:35.563Z,97287.08
2019-02-04T14:01:02.619Z,97281.58
2019-02-04T14:03:29.692Z,97279.59
2019-02-04T14:05:56.774Z,97282.76
2019-02-04T14:08:23.841Z,97281.10
2019-02-04T14:10:50.907Z,97274.80
2019-02-04T14:13:17.968Z,97285.42
2019-02-04T14:15:45.036Z,97277.78
2019-02-04T14:18:12.134Z,97279.45
2019-02-04T14:20:39.335Z,97278.92
2019-02-04T14:23:06.585Z,97278.10
2019-02-04T14:25:33.648Z,97275.76
2019-02-04T14:28:03.521Z,97275.56
2019-02-04T14:30:36.641Z,97271.77
2019-02-04T14:33:25.022Z,97267.94
2019-02-04T14:35:52.085Z,97265.09
2019-02-04T14:38:19.173Z,97261.62
2019-02-04T14:40:46.626Z,97257.30
2019-02-04T14:43:35.486Z,97255.78
2019-02-04T14:46:14.765Z,97247.47
2019-02-04T14:49:17.896Z,97240.52
2019-02-04T14:52:20.682Z,97236.17
2019-02-04T14:55:02.756Z,97236.16
2019-02-04T14:58:23.331Z,97229.36
2019-02-04T15:01:31.476Z,97222.73
2019-02-04T15:04:26.631Z,97226.53
2019-02-04T15:07:26.285Z,97225.03
2019-02-04T15:10:24.553Z,97228.67
2019-02-04T15:13:29.269Z,97214.44
2019-02-04T15:16:33.241Z,97212.09
2019-02-04T15:19:25.689Z,97212.42
2019-02-04T15:22:33.131Z,97199.49
2019-02-04T15:25:34.889Z,97203.94
2019-02-04T15:28:43.963Z,97211.20
2019-02-04T15:32:08.163Z,97208.00
2019-02-04T15:35:26.097Z,97200.03
2019-02-04T15:38:16.526Z,97198.19
2019-02-04T15:40:52.955Z,97201.52
2019-02-04T15:44:00.660Z,97206.97
2019-02-04T15:46:44.889Z,97198.69
2019-02-04T15:49:50.896Z,97201.83
2019-02-04T15:52:15.811Z,97196.53
2019-02-04T15:54:43.028Z,97198.51
2019-02-04T15:57:10.094Z,97190.05
2019-02-04T15:59:37.415Z,97185.22
2019-02-04T16:02:04.478Z,97180.88
2019-02-04T16:04:32.845Z,97173.22
2019-02-04T16:06:59.940Z,97164.92
2019-02-04T16:09:27.308Z,97158.24
2019-02-04T16:11:54.409Z,97164.80
2019-02-04T16:14:21.594Z,97156.83
2019-02-04T16:16:49.111Z,97156.08
2019-02-04T16:19:16.248Z,97158.68
2019-02-04T16:21:43.377Z,97156.45
2019-02-04T16:24:10.488Z,97155.77
2019-02-04T16:26:37.654Z,97148.33
2019-02-04T16:29:04.884Z,97151.91
2019-02-04T16:31:31.964Z,97154.52
2019-02-04T16:33:59.757Z,97161.62
2019-02-04T16:36:26.975Z,97159.50
2019-02-04T16:38:54.144Z,97151.88
2019-02-04T16:41:21.308Z,97166.84
2019-02-04T16:43:48.439Z,97163.10
2019-02-04T16:49:03.100Z,97172.84
2019-02-04T16:51:30.325Z,97170.20
2019-02-04T16:53:57.436Z,97176.17
2019-02-04T16:56:24.567Z,97170.92
2019-02-04T16:58:53.119Z,97172.92
2019-02-04T17:04:07.080Z,97186.59
2019-02-04T17:06:34.203Z,97183.46
2019-02-04T17:09:02.314Z,97188.45
2019-02-04T17:11:40.938Z,97193.80
2019-02-04T17:14:08.237Z,97194.47
2019-02-04T17:16:35.621Z,97181.99
2019-02-04T17:21:57.823Z,97199.09
2019-02-04T17:24:25.046Z,97194.02
2019-02-04T17:26:52.506Z,97203.44
2019-02-04T17:29:19.640Z,97198.02
2019-02-04T17:31:46.759Z,97208.02
2019-02-04T17:34:13.931Z,97214.95
2019-02-04T17:36:41.315Z,97211.80
2019-02-04T17:39:08.554Z,97213.61
2019-02-04T17:41:35.713Z,97218.87
2019-02-04T17:44:03.458Z,97208.89
2019-02-04T17:46:30.850Z,97212.08
2019-02-04T17:49:01.255Z,97220.20
2019-02-04T17:51:28.392Z,97221.61
2019-02-04T17:53:55.558Z,97220.30
2019-02-04T17:56:22.695Z,97218.91
2019-02-04T17:58:49.845Z,97223.83
2019-02-04T18:01:17.538Z,97224.84
2019-02-04T18:03:44.695Z,97229.77
2019-02-04T18:06:11.851Z,97222.78
2019-02-04T18:08:38.981Z,97222.43
2019-02-04T18:11:06.196Z,97222.23
2019-02-04T18:13:33.662Z,97220.17
2019-02-04T18:16:00.860Z,97217.82
2019-02-04T18:18:28.327Z,97219.87
2019-02-04T18:20:57.499Z,97222.24
2019-02-04T18:23:24.528Z,97229.59
2019-02-04T18:25:51.688Z,97228.62
2019-02-04T18:28:19.175Z,97224.23
2019-02-04T18:30:47.888Z,97228.06
2019-02-04T18:33:15.070Z,97226.94
2019-02-04T18:35:42.591Z,97229.01
2019-02-04T18:38:12.354Z,97229.44
2019-02-04T18:40:39.714Z,97229.25
2019-02-04T18:43:07.429Z,97228.36
2019-02-04T18:45:34.679Z,97226.95
2019-02-04T18:48:02.230Z,97223.56
2019-02-04T18:50:29.890Z,97226.62
2019-02-04T18:52:57.599Z,97228.19
2019-02-04T18:55:26.960Z,97227.98
2019-02-04T18:57:55.076Z,97226.26
2019-02-04T19:00:24.159Z,97218.08
2019-02-04T19:02:51.726Z,97224.94
2019-02-04T19:05:20.633Z,97224.41
2019-02-04T19:07:47.915Z,97223.63
2019-02-04T19:10:17.097Z,97227.64
2019-02-04T19:12:46.626Z,97228.89
2019-02-04T19:15:16.638Z,97230.20
2019-02-04T19:17:44.108Z,97230.34
2019-02-04T19:20:14.721Z,97233.28
2019-02-04T19:22:43.949Z,97225.03
2019-02-04T19:25:14.548Z,97228.14
2019-02-04T19:27:42.170Z,97226.53
2019-02-04T19:30:21.009Z,97219.31
2019-02-04T19:32:48.907Z,97226.11
2019-02-04T19:35:18.089Z,97221.73
2019-02-04T19:37:45.782Z,97228.36
2019-02-04T19:40:14.179Z,97226.13
2019-02-04T19:42:42.144Z,97227.71
2019-02-04T19:45:13.426Z,97230.64
2019-02-04T19:47:44.709Z,97225.29
2019-02-04T19:50:18.141Z,97216.47
2019-02-04T19:52:45.615Z,97211.95
2019-02-04T19:55:13.220Z,97217.96
2019-02-04T19:57:43.900Z,97223.41
2019-02-04T20:00:14.940Z,97217.97
2019-02-04T20:02:43.115Z,97226.91
2019-02-04T20:05:11.946Z,97222.53
2019-02-04T20:07:39.913Z,97231.61
2019-02-04T20:10:07.719Z,97249.17
2019-02-04T20:12:35.112Z,97250.21
2019-02-04T20:15:03.916Z,97252.19
2019-02-04T20:17:33.701Z,97262.95
2019-02-04T20:20:01.576Z,97259.59
2019-02-04T20:22:28.973Z,97263.78
2019-02-04T20:24:56.228Z,97258.86
2019-02-04T20:27:23.627Z,97253.30
2019-02-04T20:29:51.941Z,97245.98
2019-02-04T20:32:19.293Z,97252.34
2019-02-04T20:34:46.664Z,97249.86
2019-02-04T20:37:14.539Z,97252.91
2019-02-04T20:39:42.340Z,97244.83
2019-02-04T20:42:10.687Z,97247.07
2019-02-04T20:44:40.206Z,97253.38
2019-02-04T20:47:07.442Z,97254.57
2019-02-04T20:49:35.244Z,97251.46
2019-02-04T20:52:03.497Z,97243.66
2019-02-04T20:54:44.565Z,97240.39
2019-02-04T20:57:01.757Z,97253.48
2019-02-04T20:59:30.397Z,97254.00
2019-02-04T21:01:57.600Z,97253.97
2019-02-04T21:04:24.973Z,97252.73
2019-02-04T21:06:56.286Z,97251.28
2019-02-04T21:09:21.940Z,97260.23
2019-02-04T21:11:49.115Z,97257.45
2019-02-04T21:14:16.457Z,97240.81
2019-02-04T21:16:44.130Z,97245.72
2019-02-04T21:19:12.509Z,97250.63
2019-02-04T21:21:40.744Z,97253.19
2019-02-04T21:24:07.946Z,97252.84
2019-02-04T21:26:35.991Z,97245.84
2019-02-04T21:29:03.191Z,97265.54
2019-02-04T21:31:30.577Z,97264.73
2019-02-04T21:33:58.113Z,97267.51
2019-02-04T21:36:25.249Z,97271.83
2019-02-04T21:38:52.810Z,97270.25
2019-02-04T21:41:20.183Z,97265.13
2019-02-04T21:43:47.404Z,97263.70
2019-02-04T21:46:15.002Z,97264.14
2019-02-04T21:48:42.151Z,97254.61
2019-02-04T21:51:10.466Z,97254.69
2019-02-04T21:53:37.563Z,97253.12
2019-02-04T21:56:04.679Z,97252.41
2019-02-04T21:58:31.906Z,97248.12
2019-02-04T22:00:59.062Z,97260.52
2019-02-04T22:03:26.466Z,97258.63
2019-02-04T22:05:53.578Z,97259.09
2019-02-04T22:08:20.646Z,97258.66
2019-02-04T22:10:48.152Z,97260.45
2019-02-04T22:13:15.204Z,97255.80
2019-02-04T22:15:42.638Z,97260.21
2019-02-04T22:18:09.749Z,97260.21
2019-02-04T22:20:37.158Z,97260.95
2019-02-04T22:23:04.225Z,97256.30
2019-02-04T22:25:31.274Z,97256.90
2019-02-04T22:27:58.329Z,97253.44
2019-02-04T22:30:27.087Z,97249.15
2019-02-04T22:32:54.155Z,97250.94
2019-02-04T22:35:21.297Z,97252.40
2019-02-04T22:37:48.556Z,97252.73
2019-02-04T22:40:23.531Z,97250.46
2019-02-04T22:42:50.742Z,97253.56
2019-02-04T22:45:17.814Z,97253.34
2019-02-04T22:47:44.998Z,97252.75
2019-02-04T22:50:14.935Z,97262.38
2019-02-04T22:52:42.018Z,97252.13
2019-02-04T22:55:09.066Z,97247.72
2019-02-04T22:57:36.212Z,97248.20
2019-02-04T23:00:19.911Z,97245.34
2019-02-04T23:02:46.978Z,97244.63
2019-02-04T23:05:14.039Z,97248.56
2019-02-04T23:07:41.091Z,97244.86
2019-02-04T23:10:08.568Z,97247.01
2019-02-04T23:12:35.609Z,97245.70
2019-02-04T23:15:02.924Z,97244.27
2019-02-04T23:17:29.986Z,97242.12
2019-02-04T23:19:57.038Z,97247.01
2019-02-04T23:22:24.090Z,97244.65
2019-02-04T23:24:51.142Z,97254.19
2019-02-04T23:27:18.502Z,97245.34
2019-02-04T23:29:45.692Z,97247.96
2019-02-04T23:32:12.766Z,97251.42
2019-02-04T23:34:39.836Z,97248.41
2019-02-04T23:37:06.994Z,97247.93
2019-02-04T23:39:34.050Z,97245.34
2019-02-04T23:42:01.089Z,97241.37
2019-02-04T23:44:28.536Z,97237.19
2019-02-04T23:46:55.587Z,97227.65
2019-02-04T23:49:22.631Z,97232.38
2019-02-04T23:51:49.697Z,97230.81
2019-02-04T23:54:16.752Z,97234.95
2019-02-04T23:56:46.819Z,97235.29
2019-02-04T23:59:13.873Z,97239.58
